sensor_id;sensor_type;location;lat;lon;timestamp;P1;durP1;ratioP1;P2;durP2;ratioP2
49626;SDS011;35527;54.616;39.786;2022-08-18T00:02:29;8.85;;;5.05;;
49626;SDS011;35527;54.616;39.786;2022-08-18T00:05:35;13.95;;;5.20;;
49626;SDS011;35527;54.616;39.786;2022-08-18T00:08:39;8.65;;;4.97;;
49626;SDS011;35527;54.616;39.786;2022-08-18T00:11:43;9.07;;;4.75;;
49626;SDS011;35527;54.616;39.786;2022-08-18T00:14:49;9.70;;;5.00;;
49626;SDS011;35527;54.616;39.786;2022-08-18T00:17:57;12.00;;;5.68;;
49626;SDS011;35527;54.616;39.786;2022-08-18T00:21:00;7.28;;;5.00;;
49626;SDS011;35527;54.616;39.786;2022-08-18T00:24:06;9.23;;;4.28;;
49626;SDS011;35527;54.616;39.786;2022-08-18T00:27:09;8.70;;;4.30;;
49626;SDS011;35527;54.616;39.786;2022-08-18T00:30:20;8.57;;;3.90;;
49626;SDS011;35527;54.616;39.786;2022-08-18T00:33:26;7.43;;;4.18;;
49626;SDS011;35527;54.616;39.786;2022-08-18T00:36:29;9.80;;;4.40;;
49626;SDS011;35527;54.616;39.786;2022-08-18T00:39:33;6.90;;;4.10;;
49626;SDS011;35527;54.616;39.786;2022-08-18T00:42:43;9.70;;;4.30;;
49626;SDS011;35527;54.616;39.786;2022-08-18T00:45:52;8.98;;;4.18;;
49626;SDS011;35527;54.616;39.786;2022-08-18T00:49:24;8.07;;;3.60;;
49626;SDS011;35527;54.616;39.786;2022-08-18T00:52:27;5.93;;;3.33;;
49626;SDS011;35527;54.616;39.786;2022-08-18T00:55:31;6.57;;;4.00;;
49626;SDS011;35527;54.616;39.786;2022-08-18T00:58:43;11.07;;;4.22;;
49626;SDS011;35527;54.616;39.786;2022-08-18T01:01:50;7.22;;;4.00;;
49626;SDS011;35527;54.616;39.786;2022-08-18T01:05:02;8.43;;;3.92;;
49626;SDS011;35527;54.616;39.786;2022-08-18T01:08:13;8.85;;;4.10;;
49626;SDS011;35527;54.616;39.786;2022-08-18T01:11:21;10.23;;;4.00;;
49626;SDS011;35527;54.616;39.786;2022-08-18T01:14:23;7.15;;;3.90;;
49626;SDS011;35527;54.616;39.786;2022-08-18T01:17:26;8.95;;;4.30;;
49626;SDS011;35527;54.616;39.786;2022-08-18T01:21:21;7.95;;;3.80;;
49626;SDS011;35527;54.616;39.786;2022-08-18T01:24:50;11.88;;;4.55;;
49626;SDS011;35527;54.616;39.786;2022-08-18T01:28:15;7.47;;;4.20;;
49626;SDS011;35527;54.616;39.786;2022-08-18T01:35:01;9.65;;;4.80;;
49626;SDS011;35527;54.616;39.786;2022-08-18T01:38:09;7.20;;;3.85;;
49626;SDS011;35527;54.616;39.786;2022-08-18T01:41:16;8.55;;;4.60;;
49626;SDS011;35527;54.616;39.786;2022-08-18T01:44:21;6.90;;;4.45;;
49626;SDS011;35527;54.616;39.786;2022-08-18T01:47:24;10.80;;;5.03;;
49626;SDS011;35527;54.616;39.786;2022-08-18T01:50:26;8.95;;;4.00;;
49626;SDS011;35527;54.616;39.786;2022-08-18T01:53:34;9.98;;;4.28;;
49626;SDS011;35527;54.616;39.786;2022-08-18T01:56:39;9.82;;;4.32;;
49626;SDS011;35527;54.616;39.786;2022-08-18T01:59:47;7.07;;;4.40;;
49626;SDS011;35527;54.616;39.786;2022-08-18T02:02:55;12.05;;;4.20;;
49626;SDS011;35527;54.616;39.786;2022-08-18T02:06:01;8.73;;;4.10;;
49626;SDS011;35527;54.616;39.786;2022-08-18T02:09:37;8.00;;;4.47;;
49626;SDS011;35527;54.616;39.786;2022-08-18T02:12:47;9.23;;;4.15;;
49626;SDS011;35527;54.616;39.786;2022-08-18T02:15:49;9.75;;;4.43;;
49626;SDS011;35527;54.616;39.786;2022-08-18T02:18:53;11.32;;;4.65;;
49626;SDS011;35527;54.616;39.786;2022-08-18T02:21:58;11.93;;;3.92;;
49626;SDS011;35527;54.616;39.786;2022-08-18T02:25:08;7.20;;;3.92;;
49626;SDS011;35527;54.616;39.786;2022-08-18T02:28:12;6.68;;;3.97;;
49626;SDS011;35527;54.616;39.786;2022-08-18T02:31:17;8.63;;;4.30;;
49626;SDS011;35527;54.616;39.786;2022-08-18T02:34:27;7.28;;;4.00;;
49626;SDS011;35527;54.616;39.786;2022-08-18T02:37:32;9.75;;;4.15;;
49626;SDS011;35527;54.616;39.786;2022-08-18T02:40:38;8.23;;;4.25;;
49626;SDS011;35527;54.616;39.786;2022-08-18T02:43:41;9.63;;;4.10;;
49626;SDS011;35527;54.616;39.786;2022-08-18T02:46:50;9.30;;;4.30;;
49626;SDS011;35527;54.616;39.786;2022-08-18T02:49:56;7.40;;;3.83;;
49626;SDS011;35527;54.616;39.786;2022-08-18T02:53:00;8.52;;;4.15;;
49626;SDS011;35527;54.616;39.786;2022-08-18T02:56:13;12.25;;;4.28;;
49626;SDS011;35527;54.616;39.786;2022-08-18T02:59:32;8.55;;;3.83;;
49626;SDS011;35527;54.616;39.786;2022-08-18T03:02:39;9.68;;;3.95;;
49626;SDS011;35527;54.616;39.786;2022-08-18T03:05:46;6.75;;;3.75;;
49626;SDS011;35527;54.616;39.786;2022-08-18T03:08:50;10.32;;;4.20;;
49626;SDS011;35527;54.616;39.786;2022-08-18T03:11:55;10.52;;;4.47;;
49626;SDS011;35527;54.616;39.786;2022-08-18T03:14:59;8.20;;;4.05;;
49626;SDS011;35527;54.616;39.786;2022-08-18T03:18:05;6.53;;;3.60;;
49626;SDS011;35527;54.616;39.786;2022-08-18T03:21:11;7.43;;;3.63;;
49626;SDS011;35527;54.616;39.786;2022-08-18T03:24:20;6.55;;;3.67;;
49626;SDS011;35527;54.616;39.786;2022-08-18T03:27:28;7.68;;;3.88;;
49626;SDS011;35527;54.616;39.786;2022-08-18T03:30:31;6.07;;;3.65;;
49626;SDS011;35527;54.616;39.786;2022-08-18T03:33:35;9.50;;;3.42;;
49626;SDS011;35527;54.616;39.786;2022-08-18T03:36:39;11.38;;;4.35;;
49626;SDS011;35527;54.616;39.786;2022-08-18T03:39:44;6.47;;;3.30;;
49626;SDS011;35527;54.616;39.786;2022-08-18T03:42:49;6.80;;;3.47;;
49626;SDS011;35527;54.616;39.786;2022-08-18T03:45:53;7.05;;;3.47;;
49626;SDS011;35527;54.616;39.786;2022-08-18T03:48:57;8.63;;;3.47;;
49626;SDS011;35527;54.616;39.786;2022-08-18T03:52:06;6.80;;;3.50;;
49626;SDS011;35527;54.616;39.786;2022-08-18T03:55:10;8.38;;;3.58;;
49626;SDS011;35527;54.616;39.786;2022-08-18T03:58:40;8.25;;;3.60;;
49626;SDS011;35527;54.616;39.786;2022-08-18T04:02:01;6.70;;;3.70;;
49626;SDS011;35527;54.616;39.786;2022-08-18T04:05:06;6.43;;;3.40;;
49626;SDS011;35527;54.616;39.786;2022-08-18T04:08:12;8.25;;;4.50;;
49626;SDS011;35527;54.616;39.786;2022-08-18T04:11:16;8.25;;;3.75;;
49626;SDS011;35527;54.616;39.786;2022-08-18T04:14:22;8.27;;;4.68;;
49626;SDS011;35527;54.616;39.786;2022-08-18T04:17:26;9.82;;;5.38;;
49626;SDS011;35527;54.616;39.786;2022-08-18T04:20:33;10.45;;;5.72;;
49626;SDS011;35527;54.616;39.786;2022-08-18T04:23:38;12.00;;;6.53;;
49626;SDS011;35527;54.616;39.786;2022-08-18T04:26:44;13.02;;;7.18;;
49626;SDS011;35527;54.616;39.786;2022-08-18T04:30:17;12.23;;;8.50;;
49626;SDS011;35527;54.616;39.786;2022-08-18T04:33:22;12.30;;;8.70;;
49626;SDS011;35527;54.616;39.786;2022-08-18T04:36:26;13.98;;;9.40;;
49626;SDS011;35527;54.616;39.786;2022-08-18T04:42:37;20.02;;;13.05;;
49626;SDS011;35527;54.616;39.786;2022-08-18T04:45:40;20.23;;;14.88;;
49626;SDS011;35527;54.616;39.786;2022-08-18T04:48:45;25.23;;;17.60;;
49626;SDS011;35527;54.616;39.786;2022-08-18T04:51:54;27.80;;;21.67;;
49626;SDS011;35527;54.616;39.786;2022-08-18T04:55:15;37.67;;;28.55;;
49626;SDS011;35527;54.616;39.786;2022-08-18T04:58:20;41.63;;;31.20;;
49626;SDS011;35527;54.616;39.786;2022-08-18T05:01:28;43.35;;;31.60;;
49626;SDS011;35527;54.616;39.786;2022-08-18T05:04:36;49.90;;;38.38;;
49626;SDS011;35527;54.616;39.786;2022-08-18T05:07:44;58.65;;;46.42;;
49626;SDS011;35527;54.616;39.786;2022-08-18T05:10:54;64.75;;;50.85;;
49626;SDS011;35527;54.616;39.786;2022-08-18T05:14:05;74.07;;;61.90;;
49626;SDS011;35527;54.616;39.786;2022-08-18T05:17:12;91.93;;;68.85;;
49626;SDS011;35527;54.616;39.786;2022-08-18T05:20:16;82.25;;;66.00;;
49626;SDS011;35527;54.616;39.786;2022-08-18T05:23:21;76.32;;;62.40;;
49626;SDS011;35527;54.616;39.786;2022-08-18T05:26:25;93.22;;;77.22;;
49626;SDS011;35527;54.616;39.786;2022-08-18T05:29:29;112.67;;;94.73;;
49626;SDS011;35527;54.616;39.786;2022-08-18T05:32:40;174.95;;;146.50;;
49626;SDS011;35527;54.616;39.786;2022-08-18T05:35:47;213.90;;;183.77;;
49626;SDS011;35527;54.616;39.786;2022-08-18T05:39:05;276.38;;;238.93;;
49626;SDS011;35527;54.616;39.786;2022-08-18T05:42:20;321.23;;;279.40;;
49626;SDS011;35527;54.616;39.786;2022-08-18T05:45:26;315.67;;;280.73;;
49626;SDS011;35527;54.616;39.786;2022-08-18T05:48:32;328.02;;;289.30;;
49626;SDS011;35527;54.616;39.786;2022-08-18T05:51:40;320.77;;;281.88;;
49626;SDS011;35527;54.616;39.786;2022-08-18T05:54:51;334.92;;;298.30;;
49626;SDS011;35527;54.616;39.786;2022-08-18T05:58:24;280.48;;;250.43;;
49626;SDS011;35527;54.616;39.786;2022-08-18T06:01:38;219.48;;;192.48;;
49626;SDS011;35527;54.616;39.786;2022-08-18T06:05:48;216.77;;;191.98;;
49626;SDS011;35527;54.616;39.786;2022-08-18T06:08:57;236.63;;;210.68;;
49626;SDS011;35527;54.616;39.786;2022-08-18T06:12:30;227.30;;;202.25;;
49626;SDS011;35527;54.616;39.786;2022-08-18T06:19:34;258.05;;;229.75;;
49626;SDS011;35527;54.616;39.786;2022-08-18T06:29:26;246.85;;;220.13;;
49626;SDS011;35527;54.616;39.786;2022-08-18T06:35:58;217.18;;;192.65;;
49626;SDS011;35527;54.616;39.786;2022-08-18T06:42:29;189.43;;;167.32;;
49626;SDS011;35527;54.616;39.786;2022-08-18T06:45:33;221.35;;;196.18;;
49626;SDS011;35527;54.616;39.786;2022-08-18T06:48:43;231.50;;;206.18;;
49626;SDS011;35527;54.616;39.786;2022-08-18T06:51:58;243.10;;;217.55;;
49626;SDS011;35527;54.616;39.786;2022-08-18T06:55:30;232.77;;;207.32;;
49626;SDS011;35527;54.616;39.786;2022-08-18T07:01:37;195.43;;;172.38;;
49626;SDS011;35527;54.616;39.786;2022-08-18T07:04:59;176.82;;;156.75;;
49626;SDS011;35527;54.616;39.786;2022-08-18T07:08:14;176.18;;;154.13;;
49626;SDS011;35527;54.616;39.786;2022-08-18T07:11:24;171.05;;;149.18;;
49626;SDS011;35527;54.616;39.786;2022-08-18T07:14:29;165.13;;;146.32;;
49626;SDS011;35527;54.616;39.786;2022-08-18T07:17:34;175.18;;;148.70;;
49626;SDS011;35527;54.616;39.786;2022-08-18T07:20:48;162.18;;;140.07;;
49626;SDS011;35527;54.616;39.786;2022-08-18T07:24:00;155.23;;;132.20;;
49626;SDS011;35527;54.616;39.786;2022-08-18T07:27:44;126.53;;;111.50;;
49626;SDS011;35527;54.616;39.786;2022-08-18T07:30:52;118.97;;;105.20;;
49626;SDS011;35527;54.616;39.786;2022-08-18T07:34:21;111.82;;;95.53;;
49626;SDS011;35527;54.616;39.786;2022-08-18T07:37:31;115.57;;;98.13;;
49626;SDS011;35527;54.616;39.786;2022-08-18T07:40:58;92.88;;;82.80;;
49626;SDS011;35527;54.616;39.786;2022-08-18T07:54:31;31.97;;;27.17;;
49626;SDS011;35527;54.616;39.786;2022-08-18T08:04:56;14.77;;;10.95;;
49626;SDS011;35527;54.616;39.786;2022-08-18T08:21:10;7.93;;;3.30;;
49626;SDS011;35527;54.616;39.786;2022-08-18T08:24:24;8.43;;;3.70;;
49626;SDS011;35527;54.616;39.786;2022-08-18T08:31:25;7.75;;;4.03;;
49626;SDS011;35527;54.616;39.786;2022-08-18T08:34:45;8.15;;;3.42;;
49626;SDS011;35527;54.616;39.786;2022-08-18T08:37:55;7.90;;;3.13;;
49626;SDS011;35527;54.616;39.786;2022-08-18T08:45:12;6.57;;;3.25;;
49626;SDS011;35527;54.616;39.786;2022-08-18T08:51:34;7.22;;;2.70;;
49626;SDS011;35527;54.616;39.786;2022-08-18T08:54:45;5.03;;;2.35;;
49626;SDS011;35527;54.616;39.786;2022-08-18T09:01:34;7.85;;;2.40;;
49626;SDS011;35527;54.616;39.786;2022-08-18T09:05:08;5.45;;;2.00;;
49626;SDS011;35527;54.616;39.786;2022-08-18T09:15:19;6.15;;;1.60;;
49626;SDS011;35527;54.616;39.786;2022-08-18T09:25:29;5.40;;;1.80;;
49626;SDS011;35527;54.616;39.786;2022-08-18T09:28:54;7.90;;;2.10;;
49626;SDS011;35527;54.616;39.786;2022-08-18T09:38:36;6.18;;;1.88;;
49626;SDS011;35527;54.616;39.786;2022-08-18T09:42:08;8.00;;;2.17;;
49626;SDS011;35527;54.616;39.786;2022-08-18T09:48:36;6.93;;;2.40;;
49626;SDS011;35527;54.616;39.786;2022-08-18T09:51:42;4.13;;;1.98;;
49626;SDS011;35527;54.616;39.786;2022-08-18T09:54:47;4.72;;;1.92;;
49626;SDS011;35527;54.616;39.786;2022-08-18T10:01:36;7.68;;;2.60;;
49626;SDS011;35527;54.616;39.786;2022-08-18T10:04:42;5.25;;;2.35;;
49626;SDS011;35527;54.616;39.786;2022-08-18T10:11:18;7.93;;;2.10;;
49626;SDS011;35527;54.616;39.786;2022-08-18T10:21:28;3.63;;;1.98;;
49626;SDS011;35527;54.616;39.786;2022-08-18T10:24:55;7.13;;;2.30;;
49626;SDS011;35527;54.616;39.786;2022-08-18T10:28:05;5.70;;;2.20;;
49626;SDS011;35527;54.616;39.786;2022-08-18T10:31:18;6.30;;;2.65;;
49626;SDS011;35527;54.616;39.786;2022-08-18T10:37:47;7.20;;;2.27;;
49626;SDS011;35527;54.616;39.786;2022-08-18T10:40:57;6.40;;;2.45;;
49626;SDS011;35527;54.616;39.786;2022-08-18T10:44:12;6.55;;;2.35;;
49626;SDS011;35527;54.616;39.786;2022-08-18T10:47:29;6.50;;;2.67;;
49626;SDS011;35527;54.616;39.786;2022-08-18T10:51:23;7.78;;;2.22;;
49626;SDS011;35527;54.616;39.786;2022-08-18T11:01:32;6.60;;;2.50;;
49626;SDS011;35527;54.616;39.786;2022-08-18T11:04:59;11.00;;;2.45;;
49626;SDS011;35527;54.616;39.786;2022-08-18T11:08:11;6.13;;;2.15;;
49626;SDS011;35527;54.616;39.786;2022-08-18T11:11:20;6.90;;;2.20;;
49626;SDS011;35527;54.616;39.786;2022-08-18T11:24:27;6.45;;;2.20;;
49626;SDS011;35527;54.616;39.786;2022-08-18T11:27:33;4.20;;;2.22;;
49626;SDS011;35527;54.616;39.786;2022-08-18T11:30:38;6.13;;;2.47;;
49626;SDS011;35527;54.616;39.786;2022-08-18T11:33:44;9.25;;;2.65;;
49626;SDS011;35527;54.616;39.786;2022-08-18T11:36:54;7.35;;;2.50;;
49626;SDS011;35527;54.616;39.786;2022-08-18T11:40:05;8.05;;;2.45;;
49626;SDS011;35527;54.616;39.786;2022-08-18T11:43:56;5.93;;;2.83;;
49626;SDS011;35527;54.616;39.786;2022-08-18T11:47:12;7.03;;;2.42;;
49626;SDS011;35527;54.616;39.786;2022-08-18T11:50:24;5.43;;;2.78;;
49626;SDS011;35527;54.616;39.786;2022-08-18T11:53:39;9.57;;;2.97;;
49626;SDS011;35527;54.616;39.786;2022-08-18T12:04:07;4.88;;;2.40;;
49626;SDS011;35527;54.616;39.786;2022-08-18T12:07:56;9.82;;;2.80;;
49626;SDS011;35527;54.616;39.786;2022-08-18T12:14:29;6.30;;;2.83;;
49626;SDS011;35527;54.616;39.786;2022-08-18T12:17:36;6.88;;;2.70;;
49626;SDS011;35527;54.616;39.786;2022-08-18T12:20:40;6.70;;;2.63;;
49626;SDS011;35527;54.616;39.786;2022-08-18T12:23:46;6.90;;;2.97;;
49626;SDS011;35527;54.616;39.786;2022-08-18T12:26:51;6.80;;;2.95;;
49626;SDS011;35527;54.616;39.786;2022-08-18T12:29:56;5.30;;;2.95;;
49626;SDS011;35527;54.616;39.786;2022-08-18T12:33:02;7.10;;;3.42;;
49626;SDS011;35527;54.616;39.786;2022-08-18T12:36:05;12.05;;;7.53;;
49626;SDS011;35527;54.616;39.786;2022-08-18T12:39:08;16.73;;;10.60;;
49626;SDS011;35527;54.616;39.786;2022-08-18T12:42:12;17.23;;;12.93;;
49626;SDS011;35527;54.616;39.786;2022-08-18T12:48:20;23.92;;;16.38;;
49626;SDS011;35527;54.616;39.786;2022-08-18T12:51:23;23.15;;;17.45;;
49626;SDS011;35527;54.616;39.786;2022-08-18T12:54:26;23.58;;;16.05;;
49626;SDS011;35527;54.616;39.786;2022-08-18T12:57:30;21.77;;;15.80;;
49626;SDS011;35527;54.616;39.786;2022-08-18T13:00:34;23.08;;;14.60;;
49626;SDS011;35527;54.616;39.786;2022-08-18T13:04:03;17.45;;;14.18;;
49626;SDS011;35527;54.616;39.786;2022-08-18T13:07:11;19.48;;;13.90;;
49626;SDS011;35527;54.616;39.786;2022-08-18T13:10:16;20.60;;;13.13;;
49626;SDS011;35527;54.616;39.786;2022-08-18T13:13:19;15.90;;;12.07;;
49626;SDS011;35527;54.616;39.786;2022-08-18T13:16:48;16.30;;;10.95;;
49626;SDS011;35527;54.616;39.786;2022-08-18T13:19:54;13.73;;;9.95;;
49626;SDS011;35527;54.616;39.786;2022-08-18T13:22:58;12.35;;;7.55;;
49626;SDS011;35527;54.616;39.786;2022-08-18T13:26:04;10.65;;;5.97;;
49626;SDS011;35527;54.616;39.786;2022-08-18T13:29:10;11.32;;;5.47;;
49626;SDS011;35527;54.616;39.786;2022-08-18T13:32:13;8.48;;;4.10;;
49626;SDS011;35527;54.616;39.786;2022-08-18T13:35:17;9.68;;;4.05;;
49626;SDS011;35527;54.616;39.786;2022-08-18T13:38:22;10.68;;;3.60;;
49626;SDS011;35527;54.616;39.786;2022-08-18T13:41:26;6.00;;;2.92;;
49626;SDS011;35527;54.616;39.786;2022-08-18T13:44:31;9.80;;;3.53;;
49626;SDS011;35527;54.616;39.786;2022-08-18T13:47:36;11.65;;;3.47;;
49626;SDS011;35527;54.616;39.786;2022-08-18T13:50:39;7.82;;;2.70;;
49626;SDS011;35527;54.616;39.786;2022-08-18T13:53:43;9.75;;;3.35;;
49626;SDS011;35527;54.616;39.786;2022-08-18T13:56:53;6.75;;;2.97;;
49626;SDS011;35527;54.616;39.786;2022-08-18T14:00:23;8.73;;;3.10;;
49626;SDS011;35527;54.616;39.786;2022-08-18T14:03:27;9.95;;;2.95;;
49626;SDS011;35527;54.616;39.786;2022-08-18T14:06:31;10.27;;;3.10;;
49626;SDS011;35527;54.616;39.786;2022-08-18T14:09:35;8.32;;;3.08;;
49626;SDS011;35527;54.616;39.786;2022-08-18T14:12:38;8.43;;;3.38;;
49626;SDS011;35527;54.616;39.786;2022-08-18T14:15:44;7.20;;;2.95;;
49626;SDS011;35527;54.616;39.786;2022-08-18T14:18:50;10.65;;;3.15;;
49626;SDS011;35527;54.616;39.786;2022-08-18T14:22:28;11.02;;;3.67;;
49626;SDS011;35527;54.616;39.786;2022-08-18T14:25:49;6.88;;;3.03;;
49626;SDS011;35527;54.616;39.786;2022-08-18T14:29:12;11.27;;;3.00;;
49626;SDS011;35527;54.616;39.786;2022-08-18T14:32:41;6.63;;;3.20;;
49626;SDS011;35527;54.616;39.786;2022-08-18T14:38:50;7.97;;;3.28;;
49626;SDS011;35527;54.616;39.786;2022-08-18T14:41:56;6.85;;;3.15;;
49626;SDS011;35527;54.616;39.786;2022-08-18T14:44:59;9.95;;;3.85;;
49626;SDS011;35527;54.616;39.786;2022-08-18T14:48:05;10.13;;;3.90;;
49626;SDS011;35527;54.616;39.786;2022-08-18T14:51:09;9.00;;;3.70;;
49626;SDS011;35527;54.616;39.786;2022-08-18T14:54:14;6.45;;;2.92;;
49626;SDS011;35527;54.616;39.786;2022-08-18T14:57:18;7.70;;;3.00;;
49626;SDS011;35527;54.616;39.786;2022-08-18T15:00:26;5.70;;;3.10;;
49626;SDS011;35527;54.616;39.786;2022-08-18T15:03:34;8.10;;;3.03;;
49626;SDS011;35527;54.616;39.786;2022-08-18T15:06:39;9.95;;;3.00;;
49626;SDS011;35527;54.616;39.786;2022-08-18T15:09:46;8.18;;;3.58;;
49626;SDS011;35527;54.616;39.786;2022-08-18T15:12:53;7.32;;;3.00;;
49626;SDS011;35527;54.616;39.786;2022-08-18T15:15:57;6.37;;;3.00;;
49626;SDS011;35527;54.616;39.786;2022-08-18T15:19:03;10.63;;;3.80;;
49626;SDS011;35527;54.616;39.786;2022-08-18T15:22:08;7.70;;;3.00;;
49626;SDS011;35527;54.616;39.786;2022-08-18T15:25:30;8.05;;;3.80;;
49626;SDS011;35527;54.616;39.786;2022-08-18T15:28:48;7.50;;;4.03;;
49626;SDS011;35527;54.616;39.786;2022-08-18T15:31:54;10.80;;;4.53;;
49626;SDS011;35527;54.616;39.786;2022-08-18T15:38:29;6.30;;;3.05;;
49626;SDS011;35527;54.616;39.786;2022-08-18T15:41:37;8.13;;;3.40;;
49626;SDS011;35527;54.616;39.786;2022-08-18T15:44:42;10.82;;;3.20;;
49626;SDS011;35527;54.616;39.786;2022-08-18T15:47:46;7.90;;;2.90;;
49626;SDS011;35527;54.616;39.786;2022-08-18T15:50:51;6.13;;;2.78;;
49626;SDS011;35527;54.616;39.786;2022-08-18T15:53:56;7.82;;;3.40;;
49626;SDS011;35527;54.616;39.786;2022-08-18T15:57:00;6.20;;;2.97;;
49626;SDS011;35527;54.616;39.786;2022-08-18T16:00:07;7.63;;;3.38;;
49626;SDS011;35527;54.616;39.786;2022-08-18T16:03:15;7.18;;;3.53;;
49626;SDS011;35527;54.616;39.786;2022-08-18T16:06:22;7.40;;;3.78;;
49626;SDS011;35527;54.616;39.786;2022-08-18T16:09:28;9.80;;;3.90;;
49626;SDS011;35527;54.616;39.786;2022-08-18T16:12:31;8.43;;;4.30;;
49626;SDS011;35527;54.616;39.786;2022-08-18T16:15:38;8.60;;;3.73;;
49626;SDS011;35527;54.616;39.786;2022-08-18T16:18:42;8.48;;;3.10;;
49626;SDS011;35527;54.616;39.786;2022-08-18T16:21:50;5.60;;;2.63;;
49626;SDS011;35527;54.616;39.786;2022-08-18T16:24:56;9.38;;;2.92;;
49626;SDS011;35527;54.616;39.786;2022-08-18T16:28:00;5.13;;;2.33;;
49626;SDS011;35527;54.616;39.786;2022-08-18T16:31:03;5.88;;;2.65;;
49626;SDS011;35527;54.616;39.786;2022-08-18T16:34:07;6.45;;;2.55;;
49626;SDS011;35527;54.616;39.786;2022-08-18T16:37:11;8.93;;;3.40;;
49626;SDS011;35527;54.616;39.786;2022-08-18T16:40:14;8.27;;;2.80;;
49626;SDS011;35527;54.616;39.786;2022-08-18T16:43:20;8.13;;;3.10;;
49626;SDS011;35527;54.616;39.786;2022-08-18T16:46:30;8.02;;;3.03;;
49626;SDS011;35527;54.616;39.786;2022-08-18T16:49:35;8.10;;;2.88;;
49626;SDS011;35527;54.616;39.786;2022-08-18T16:52:41;9.02;;;3.20;;
49626;SDS011;35527;54.616;39.786;2022-08-18T16:55:43;8.15;;;3.20;;
49626;SDS011;35527;54.616;39.786;2022-08-18T16:58:46;6.93;;;2.90;;
49626;SDS011;35527;54.616;39.786;2022-08-18T17:02:14;5.90;;;2.63;;
49626;SDS011;35527;54.616;39.786;2022-08-18T17:05:40;8.18;;;3.17;;
49626;SDS011;35527;54.616;39.786;2022-08-18T17:08:43;8.30;;;2.65;;
49626;SDS011;35527;54.616;39.786;2022-08-18T17:11:47;7.73;;;3.03;;
49626;SDS011;35527;54.616;39.786;2022-08-18T17:14:53;4.20;;;2.38;;
49626;SDS011;35527;54.616;39.786;2022-08-18T17:17:56;6.13;;;3.78;;
49626;SDS011;35527;54.616;39.786;2022-08-18T17:21:00;6.80;;;2.30;;
49626;SDS011;35527;54.616;39.786;2022-08-18T17:24:08;8.60;;;3.20;;
49626;SDS011;35527;54.616;39.786;2022-08-18T17:30:20;7.97;;;5.18;;
49626;SDS011;35527;54.616;39.786;2022-08-18T17:33:26;8.88;;;3.80;;
49626;SDS011;35527;54.616;39.786;2022-08-18T17:36:35;8.25;;;4.90;;
49626;SDS011;35527;54.616;39.786;2022-08-18T17:39:50;10.30;;;4.57;;
49626;SDS011;35527;54.616;39.786;2022-08-18T17:43:05;7.97;;;4.50;;
49626;SDS011;35527;54.616;39.786;2022-08-18T17:46:20;8.00;;;4.20;;
49626;SDS011;35527;54.616;39.786;2022-08-18T17:53:05;9.02;;;4.15;;
49626;SDS011;35527;54.616;39.786;2022-08-18T17:56:16;10.02;;;4.30;;
49626;SDS011;35527;54.616;39.786;2022-08-18T17:59:37;9.55;;;4.10;;
49626;SDS011;35527;54.616;39.786;2022-08-18T18:02:54;11.07;;;4.07;;
49626;SDS011;35527;54.616;39.786;2022-08-18T18:06:02;8.35;;;3.47;;
49626;SDS011;35527;54.616;39.786;2022-08-18T18:12:27;6.05;;;3.00;;
49626;SDS011;35527;54.616;39.786;2022-08-18T18:15:33;7.80;;;2.70;;
49626;SDS011;35527;54.616;39.786;2022-08-18T18:18:42;6.18;;;2.63;;
49626;SDS011;35527;54.616;39.786;2022-08-18T18:21:48;7.07;;;2.60;;
49626;SDS011;35527;54.616;39.786;2022-08-18T18:25:08;7.28;;;2.90;;
49626;SDS011;35527;54.616;39.786;2022-08-18T18:31:31;7.15;;;2.58;;
49626;SDS011;35527;54.616;39.786;2022-08-18T18:34:36;9.73;;;2.50;;
49626;SDS011;35527;54.616;39.786;2022-08-18T18:44:09;7.85;;;2.67;;
49626;SDS011;35527;54.616;39.786;2022-08-18T18:47:21;6.53;;;3.13;;
49626;SDS011;35527;54.616;39.786;2022-08-18T18:54:08;8.00;;;3.45;;
49626;SDS011;35527;54.616;39.786;2022-08-18T18:57:55;7.95;;;2.70;;
49626;SDS011;35527;54.616;39.786;2022-08-18T19:00:58;7.03;;;2.55;;
49626;SDS011;35527;54.616;39.786;2022-08-18T19:04:09;6.32;;;2.67;;
49626;SDS011;35527;54.616;39.786;2022-08-18T19:07:24;8.57;;;2.85;;
49626;SDS011;35527;54.616;39.786;2022-08-18T19:10:36;8.05;;;3.30;;
49626;SDS011;35527;54.616;39.786;2022-08-18T19:13:52;7.85;;;2.92;;
49626;SDS011;35527;54.616;39.786;2022-08-18T19:17:11;7.93;;;3.10;;
49626;SDS011;35527;54.616;39.786;2022-08-18T19:20:22;6.03;;;2.70;;
49626;SDS011;35527;54.616;39.786;2022-08-18T19:23:37;6.10;;;2.78;;
49626;SDS011;35527;54.616;39.786;2022-08-18T19:26:49;5.35;;;2.63;;
49626;SDS011;35527;54.616;39.786;2022-08-18T19:29:57;10.32;;;2.55;;
49626;SDS011;35527;54.616;39.786;2022-08-18T19:33:06;6.50;;;2.30;;
49626;SDS011;35527;54.616;39.786;2022-08-18T19:50:04;7.35;;;2.70;;
49626;SDS011;35527;54.616;39.786;2022-08-18T19:57:39;6.07;;;2.40;;
49626;SDS011;35527;54.616;39.786;2022-08-18T20:04:10;5.18;;;2.00;;
49626;SDS011;35527;54.616;39.786;2022-08-18T20:14:37;5.18;;;2.00;;
49626;SDS011;35527;54.616;39.786;2022-08-18T20:18:06;5.45;;;2.25;;
49626;SDS011;35527;54.616;39.786;2022-08-18T20:21:48;5.43;;;1.77;;
49626;SDS011;35527;54.616;39.786;2022-08-18T20:25:07;8.75;;;1.90;;
49626;SDS011;35527;54.616;39.786;2022-08-18T20:28:30;4.88;;;2.00;;
49626;SDS011;35527;54.616;39.786;2022-08-18T20:34:51;4.30;;;1.73;;
49626;SDS011;35527;54.616;39.786;2022-08-18T20:38:11;5.27;;;1.80;;
49626;SDS011;35527;54.616;39.786;2022-08-18T20:44:32;3.90;;;1.92;;
49626;SDS011;35527;54.616;39.786;2022-08-18T20:51:03;6.00;;;2.00;;
49626;SDS011;35527;54.616;39.786;2022-08-18T20:57:46;7.78;;;2.30;;
49626;SDS011;35527;54.616;39.786;2022-08-18T21:00:59;5.72;;;1.90;;
49626;SDS011;35527;54.616;39.786;2022-08-18T21:04:03;5.00;;;1.80;;
49626;SDS011;35527;54.616;39.786;2022-08-18T21:07:18;5.93;;;1.90;;
49626;SDS011;35527;54.616;39.786;2022-08-18T21:10:27;5.47;;;2.00;;
49626;SDS011;35527;54.616;39.786;2022-08-18T21:13:45;5.97;;;1.90;;
49626;SDS011;35527;54.616;39.786;2022-08-18T21:16:49;7.03;;;1.90;;
49626;SDS011;35527;54.616;39.786;2022-08-18T21:19:58;7.43;;;1.80;;
49626;SDS011;35527;54.616;39.786;2022-08-18T21:23:07;6.32;;;2.08;;
49626;SDS011;35527;54.616;39.786;2022-08-18T21:26:15;7.00;;;1.80;;
49626;SDS011;35527;54.616;39.786;2022-08-18T21:29:20;7.93;;;2.25;;
49626;SDS011;35527;54.616;39.786;2022-08-18T21:32:35;5.35;;;1.88;;
49626;SDS011;35527;54.616;39.786;2022-08-18T21:35:40;3.75;;;1.70;;
49626;SDS011;35527;54.616;39.786;2022-08-18T21:38:48;4.90;;;1.73;;
49626;SDS011;35527;54.616;39.786;2022-08-18T21:41:53;6.63;;;2.20;;
49626;SDS011;35527;54.616;39.786;2022-08-18T21:48:27;4.40;;;1.77;;
49626;SDS011;35527;54.616;39.786;2022-08-18T21:51:57;6.38;;;1.77;;
49626;SDS011;35527;54.616;39.786;2022-08-18T21:55:05;4.03;;;1.60;;
49626;SDS011;35527;54.616;39.786;2022-08-18T21:58:37;5.93;;;2.13;;
49626;SDS011;35527;54.616;39.786;2022-08-18T22:01:52;5.38;;;1.95;;
49626;SDS011;35527;54.616;39.786;2022-08-18T22:05:01;4.72;;;1.80;;
49626;SDS011;35527;54.616;39.786;2022-08-18T22:08:04;6.55;;;2.00;;
49626;SDS011;35527;54.616;39.786;2022-08-18T22:14:44;5.95;;;2.08;;
49626;SDS011;35527;54.616;39.786;2022-08-18T22:17:53;4.00;;;2.05;;
49626;SDS011;35527;54.616;39.786;2022-08-18T22:21:03;10.23;;;2.00;;
49626;SDS011;35527;54.616;39.786;2022-08-18T22:24:12;5.30;;;1.95;;